createdAt,value
2019-04-23T00:03:11.482Z,71.40
2019-04-23T00:08:19.677Z,71.70
2019-04-23T00:10:43.145Z,72.50
2019-04-23T00:13:21.510Z,72.20
2019-04-23T00:16:03.067Z,72.30
2019-04-23T00:18:36.953Z,72.50
2019-04-23T00:21:33.146Z,73.20
2019-04-23T00:24:10.043Z,73.80
2019-04-23T00:26:41.893Z,75.40
2019-04-23T00:29:11.914Z,75.00
2019-04-23T00:31:44.364Z,74.90
2019-04-23T00:34:20.541Z,76.90
2019-04-23T00:36:51.686Z,76.80
2019-04-23T00:39:26.539Z,76.90
2019-04-23T00:41:50.712Z,76.80
2019-04-23T00:44:37.773Z,76.90
2019-04-23T00:46:55.691Z,78.10
2019-04-23T00:49:35.630Z,78.10
2019-04-23T00:52:08.752Z,79.10
2019-04-23T00:54:32.658Z,80.80
2019-04-23T00:57:14.988Z,93.20
2019-04-23T00:59:44.795Z,82.50
2019-04-23T01:02:10.505Z,83.90
2019-04-23T01:04:51.013Z,82.20
2019-04-23T01:07:21.024Z,82.20
2019-04-23T01:09:59.789Z,82.50
2019-04-23T01:12:31.785Z,92.90
2019-04-23T01:15:02.488Z,82.60
2019-04-23T01:18:22.188Z,84.40
2019-04-23T01:20:08.203Z,84.60
2019-04-23T01:22:25.093Z,87.90
2019-04-23T01:25:11.251Z,86.50
2019-04-23T01:28:04.325Z,87.70
2019-04-23T01:30:34.364Z,87.30
2019-04-23T01:33:10.792Z,88.10
2019-04-23T01:35:36.405Z,87.30
2019-04-23T01:38:11.074Z,86.80
2019-04-23T01:40:40.877Z,89.10
2019-04-23T01:43:16.709Z,89.60
2019-04-23T01:45:44.366Z,96.00
2019-04-23T01:48:19.950Z,96.60
2019-04-23T01:50:56.054Z,90.60
2019-04-23T01:56:01.341Z,90.80
2019-04-23T02:01:07.152Z,91.60
2019-04-23T02:03:58.335Z,91.60
2019-04-23T02:08:48.625Z,92.50
2019-04-23T02:11:11.475Z,93.30
2019-04-23T02:13:49.061Z,92.70
2019-04-23T02:16:21.641Z,92.80
2019-04-23T02:19:09.955Z,92.80
2019-04-23T02:21:26.375Z,93.00
2019-04-23T02:24:07.987Z,94.40
2019-04-23T02:26:42.124Z,92.80
2019-04-23T02:29:26.621Z,92.90
2019-04-23T02:34:35.690Z,93.00
2019-04-23T02:39:29.379Z,92.80
2019-04-23T02:42:04.800Z,99.90
2019-04-23T02:44:24.323Z,93.30
2019-04-23T02:47:12.568Z,92.90
2019-04-23T02:49:43.797Z,93.10
2019-04-23T02:52:10.221Z,92.90
2019-04-23T02:57:13.458Z,92.60
2019-04-23T03:07:34.877Z,92.60
2019-04-23T03:10:03.257Z,92.60
2019-04-23T03:12:31.395Z,92.60
2019-04-23T03:18:16.098Z,93.30
2019-04-23T03:20:48.703Z,92.70
2019-04-23T03:25:59.472Z,92.60
2019-04-23T03:28:37.877Z,92.90
2019-04-23T03:43:43.064Z,93.60
2019-04-23T03:48:57.345Z,93.60
2019-04-23T03:51:28.632Z,92.90
2019-04-23T03:54:11.663Z,92.90
2019-04-23T03:56:34.360Z,92.90
2019-04-23T04:01:30.097Z,92.80
2019-04-23T04:04:20.306Z,93.00
2019-04-23T04:11:27.187Z,92.90
2019-04-23T04:22:04.920Z,95.50
2019-04-23T04:24:27.454Z,93.50
2019-04-23T04:29:41.001Z,94.00
2019-04-23T04:32:00.467Z,96.60
2019-04-23T04:39:49.730Z,96.80
2019-04-23T04:42:10.435Z,96.30
2019-04-23T04:45:09.982Z,94.30
2019-04-23T04:47:27.943Z,92.70
2019-04-23T04:52:34.617Z,93.20
2019-04-23T04:54:51.262Z,93.40
2019-04-23T05:02:38.980Z,92.80
2019-04-23T05:07:48.409Z,93.10
2019-04-23T05:12:36.214Z,93.30
2019-04-23T05:15:08.936Z,93.80
2019-04-23T05:18:12.066Z,95.00
2019-04-23T05:20:36.660Z,95.10
2019-04-23T05:23:16.537Z,94.20
2019-04-23T05:25:31.707Z,93.40
2019-04-23T05:30:44.557Z,93.00
2019-04-23T05:33:17.126Z,93.00
2019-04-23T05:36:06.173Z,94.40
2019-04-23T05:38:35.911Z,92.90
2019-04-23T05:40:53.778Z,93.00
2019-04-23T05:43:26.180Z,93.20
2019-04-23T05:45:59.316Z,93.20
2019-04-23T05:48:46.974Z,93.10
2019-04-23T05:51:04.285Z,93.10
2019-04-23T05:53:40.814Z,93.10
2019-04-23T06:01:49.912Z,93.20
2019-04-23T06:04:11.714Z,93.70
2019-04-23T06:06:52.484Z,93.50
2019-04-23T06:16:49.860Z,93.60
2019-04-23T06:19:18.991Z,93.60
2019-04-23T06:21:57.774Z,94.10
2019-04-23T06:24:29.026Z,93.80
2019-04-23T06:32:14.469Z,99.90
2019-04-23T06:34:36.393Z,93.80
2019-04-23T06:37:03.520Z,94.20
2019-04-23T06:42:08.083Z,93.80
2019-04-23T06:44:44.965Z,93.90
2019-04-23T06:52:21.294Z,94.80
2019-04-23T06:57:48.188Z,94.20
2019-04-23T07:00:02.219Z,94.10
2019-04-23T07:02:33.816Z,94.80
2019-04-23T07:10:11.181Z,94.30
2019-04-23T07:15:32.256Z,94.70
2019-04-23T07:17:51.880Z,94.30
2019-04-23T07:20:20.145Z,87.50
2019-04-23T07:22:59.858Z,94.50
2019-04-23T07:25:38.803Z,94.70
2019-04-23T07:27:58.435Z,94.60
2019-04-23T07:30:32.919Z,94.60
2019-04-23T07:33:05.895Z,94.60
2019-04-23T07:35:30.525Z,94.50
2019-04-23T07:38:35.719Z,94.90
2019-04-23T07:41:07.299Z,90.10
2019-04-23T07:43:54.784Z,94.50
2019-04-23T07:46:41.533Z,94.40
2019-04-23T07:49:10.987Z,95.00
2019-04-23T07:51:49.629Z,94.80
2019-04-23T07:54:17.538Z,94.60
2019-04-23T07:56:58.542Z,95.30
2019-04-23T07:59:22.121Z,95.30
2019-04-23T08:01:51.152Z,94.80
2019-04-23T08:04:29.992Z,94.80
2019-04-23T08:06:52.430Z,94.90
2019-04-23T08:09:35.909Z,94.90
2019-04-23T08:11:56.253Z,95.00
2019-04-23T08:14:32.790Z,94.90
2019-04-23T08:17:05.462Z,95.40
2019-04-23T08:19:42.456Z,94.60
2019-04-23T08:22:20.714Z,94.70
2019-04-23T08:25:08.449Z,94.60
2019-04-23T08:27:42.039Z,93.70
2019-04-23T08:30:09.724Z,93.10
2019-04-23T08:32:54.019Z,92.40
2019-04-23T08:35:21.381Z,92.50
2019-04-23T08:40:29.294Z,92.10
2019-04-23T08:43:09.063Z,88.10
2019-04-23T08:45:48.195Z,91.60
2019-04-23T08:48:32.854Z,87.80
2019-04-23T08:50:54.701Z,88.50
2019-04-23T08:56:08.822Z,78.50
2019-04-23T09:01:05.535Z,78.70
2019-04-23T09:03:34.505Z,76.60
2019-04-23T09:08:39.340Z,78.30
2019-04-23T09:11:32.418Z,79.10
2019-04-23T09:13:54.900Z,77.10
2019-04-23T09:16:17.276Z,74.80
2019-04-23T09:18:47.289Z,75.60
2019-04-23T09:21:21.090Z,73.30
2019-04-23T09:23:59.107Z,73.20
2019-04-23T09:26:29.038Z,73.50
2019-04-23T09:29:02.500Z,71.80
2019-04-23T09:32:20.853Z,72.30
2019-04-23T09:34:46.509Z,72.60
2019-04-23T09:45:56.153Z,65.20
2019-04-23T09:48:26.835Z,63.80
2019-04-23T09:56:03.266Z,65.70
2019-04-23T09:58:34.428Z,63.70
2019-04-23T10:01:26.658Z,66.00
2019-04-23T10:03:46.321Z,64.40
2019-04-23T10:06:18.261Z,59.70
2019-04-23T10:08:47.460Z,60.70
2019-04-23T10:11:15.949Z,59.20
2019-04-23T10:13:48.182Z,59.90
2019-04-23T10:16:21.981Z,59.30
2019-04-23T10:18:53.301Z,59.80
2019-04-23T10:21:25.510Z,60.30
2019-04-23T10:23:57.094Z,61.20
2019-04-23T10:26:28.342Z,59.80
2019-04-23T10:29:09.906Z,58.40
2019-04-23T10:31:41.951Z,58.20
2019-04-23T10:34:12.810Z,58.50
2019-04-23T10:36:44.179Z,57.70
2019-04-23T10:39:21.611Z,57.20
2019-04-23T10:41:48.810Z,56.90
2019-04-23T10:44:53.080Z,58.50
2019-04-23T10:48:21.660Z,57.80
2019-04-23T10:51:24.961Z,57.20
2019-04-23T10:55:54.075Z,55.20
2019-04-23T11:01:01.458Z,49.10
2019-04-23T11:03:53.978Z,48.90
2019-04-23T11:06:07.063Z,46.60
2019-04-23T11:08:36.819Z,46.90
2019-04-23T11:13:45.343Z,45.50
2019-04-23T11:18:56.666Z,42.40
2019-04-23T11:21:27.449Z,40.90
2019-04-23T11:24:04.873Z,40.00
2019-04-23T11:26:42.472Z,41.00
2019-04-23T11:29:04.466Z,42.00
2019-04-23T11:31:48.751Z,40.30
2019-04-23T11:34:07.454Z,40.90
2019-04-23T11:39:16.724Z,41.50
2019-04-23T11:44:18.998Z,40.80
2019-04-23T11:49:36.376Z,44.30
2019-04-23T11:52:05.139Z,44.00
2019-04-23T11:54:28.819Z,42.40
2019-04-23T11:57:22.515Z,42.20
2019-04-23T11:59:47.209Z,41.40
2019-04-23T12:02:28.897Z,42.40
2019-04-23T12:05:30.056Z,41.00
2019-04-23T12:08:18.868Z,40.80
2019-04-23T12:13:49.439Z,39.90
2019-04-23T12:16:10.570Z,39.80
2019-04-23T12:18:43.381Z,39.90
2019-04-23T12:21:20.497Z,40.40
2019-04-23T12:26:30.005Z,38.50
2019-04-23T12:31:31.502Z,40.60
2019-04-23T12:34:08.052Z,41.10
2019-04-23T12:36:46.785Z,39.50
2019-04-23T12:39:11.274Z,37.50
2019-04-23T12:41:45.496Z,37.90
2019-04-23T12:44:14.858Z,37.20
2019-04-23T12:46:45.955Z,38.80
2019-04-23T12:49:39.154Z,38.20
2019-04-23T12:51:55.932Z,40.20
2019-04-23T12:54:38.474Z,41.50
2019-04-23T12:57:14.988Z,39.70
2019-04-23T12:59:30.983Z,38.70
2019-04-23T13:02:07.730Z,36.70
2019-04-23T13:04:34.474Z,35.70
2019-04-23T13:07:07.204Z,36.10
2019-04-23T13:09:52.566Z,34.30
2019-04-23T13:12:33.024Z,36.70
2019-04-23T13:14:57.340Z,34.00
2019-04-23T13:17:29.739Z,33.70
2019-04-23T13:20:00.676Z,34.00
2019-04-23T13:22:30.727Z,32.50
2019-04-23T13:25:26.979Z,32.30
2019-04-23T13:28:02.789Z,31.30
2019-04-23T13:30:47.037Z,31.30
2019-04-23T13:33:12.589Z,33.30
2019-04-23T13:35:48.626Z,32.50
2019-04-23T13:38:22.437Z,30.80
2019-04-23T13:40:53.155Z,31.60
2019-04-23T13:43:19.586Z,33.00
2019-04-23T13:45:59.921Z,35.90
2019-04-23T13:48:16.707Z,35.20
2019-04-23T13:53:36.898Z,33.00
2019-04-23T13:55:53.015Z,34.40
2019-04-23T13:58:29.521Z,33.40
2019-04-23T14:01:09.071Z,45.80
2019-04-23T14:03:41.154Z,34.50
2019-04-23T14:06:18.036Z,34.10
2019-04-23T14:08:55.263Z,33.30
2019-04-23T14:16:28.612Z,28.90
2019-04-23T14:21:24.817Z,26.50
2019-04-23T14:26:29.660Z,24.60
2019-04-23T14:29:02.163Z,23.60
2019-04-23T14:31:30.370Z,24.10
2019-04-23T14:34:04.831Z,25.20
2019-04-23T14:36:47.788Z,25.50
2019-04-23T14:39:11.312Z,27.50
2019-04-23T14:44:49.717Z,27.20
2019-04-23T14:47:24.270Z,27.50
2019-04-23T14:50:14.998Z,28.00
2019-04-23T14:52:32.523Z,28.20
2019-04-23T14:57:45.595Z,40.50
2019-04-23T15:00:11.317Z,29.20
2019-04-23T15:02:48.268Z,30.30
2019-04-23T15:05:17.119Z,41.00
2019-04-23T15:07:42.924Z,29.70
2019-04-23T15:10:29.569Z,29.30
2019-04-23T15:12:54.025Z,30.70
2019-04-23T15:15:23.991Z,30.00
2019-04-23T15:17:55.759Z,30.50
2019-04-23T15:20:30.648Z,30.40
2019-04-23T15:23:25.452Z,32.20
2019-04-23T15:30:34.106Z,31.50
2019-04-23T15:33:19.780Z,31.80
2019-04-23T15:36:03.926Z,33.50
2019-04-23T15:38:36.083Z,33.10
2019-04-23T15:40:54.626Z,33.20
2019-04-23T15:43:22.521Z,33.30
2019-04-23T15:46:07.781Z,34.90
2019-04-23T15:48:22.776Z,36.20
2019-04-23T15:51:06.298Z,36.40
2019-04-23T15:53:26.635Z,35.40
2019-04-23T15:56:16.129Z,33.20
2019-04-23T15:58:48.559Z,33.40
2019-04-23T16:03:24.454Z,33.30
2019-04-23T16:05:55.258Z,33.60
2019-04-23T16:14:17.687Z,35.30
2019-04-23T16:16:46.441Z,35.20
2019-04-23T16:19:21.966Z,35.00
2019-04-23T16:21:54.730Z,35.60
2019-04-23T16:24:26.287Z,35.80
2019-04-23T16:27:04.448Z,37.00
2019-04-23T16:29:34.236Z,35.70
2019-04-23T16:32:20.495Z,35.80
2019-04-23T16:35:03.205Z,36.50
2019-04-23T16:37:26.442Z,36.10
2019-04-23T16:40:10.371Z,36.10
2019-04-23T16:42:56.882Z,37.30
2019-04-23T16:45:10.986Z,36.40
2019-04-23T16:47:38.906Z,36.30
2019-04-23T16:50:10.905Z,36.00
2019-04-23T16:52:42.268Z,36.40
2019-04-23T16:55:24.035Z,36.50
2019-04-23T16:57:59.885Z,36.80
2019-04-23T17:03:09.333Z,36.90
2019-04-23T17:05:33.364Z,36.60
2019-04-23T17:08:33.838Z,36.60
2019-04-23T17:10:42.821Z,36.90
2019-04-23T17:13:16.238Z,36.60
2019-04-23T17:15:53.517Z,36.40
2019-04-23T17:18:16.872Z,36.60
2019-04-23T17:20:51.855Z,38.00
2019-04-23T17:23:35.843Z,36.60
2019-04-23T17:26:00.843Z,37.10
2019-04-23T17:31:26.554Z,37.10
2019-04-23T17:33:43.888Z,36.80
2019-04-23T17:36:30.607Z,37.40
2019-04-23T17:39:21.236Z,37.00
2019-04-23T17:42:28.981Z,37.30
2019-04-23T17:45:06.443Z,37.40
2019-04-23T17:50:13.648Z,37.60
2019-04-23T17:52:41.812Z,37.30
2019-04-23T17:55:10.160Z,38.80
2019-04-23T17:57:45.960Z,37.50
2019-04-23T18:00:25.429Z,37.70
2019-04-23T18:05:16.664Z,38.10
2019-04-23T18:08:07.671Z,37.70
2019-04-23T18:10:39.160Z,37.80
2019-04-23T18:13:00.471Z,37.80
2019-04-23T18:15:19.809Z,37.80
2019-04-23T18:18:28.415Z,37.80
2019-04-23T18:21:08.125Z,37.90
2019-04-23T18:23:26.195Z,38.70
2019-04-23T18:26:05.458Z,38.00
2019-04-23T18:28:39.984Z,37.90
2019-04-23T18:31:46.880Z,37.90
2019-04-23T18:36:35.313Z,38.40
2019-04-23T18:39:15.155Z,40.00
2019-04-23T18:41:43.265Z,38.70
2019-04-23T18:44:21.932Z,38.90
2019-04-23T18:46:54.123Z,38.80
2019-04-23T18:49:28.370Z,38.70
2019-04-23T18:52:20.976Z,39.00
2019-04-23T18:54:28.335Z,38.80
2019-04-23T18:57:09.989Z,39.90
2019-04-23T19:05:08.352Z,40.60
2019-04-23T19:08:04.612Z,40.30
2019-04-23T19:10:41.719Z,41.10
2019-04-23T19:13:18.853Z,40.90
2019-04-23T19:15:42.611Z,39.90
2019-04-23T19:18:27.087Z,41.60
2019-04-23T19:21:02.303Z,41.40
2019-04-23T19:23:31.883Z,41.90
2019-04-23T19:25:59.709Z,40.50
2019-04-23T19:31:26.227Z,40.60
2019-04-23T19:36:54.259Z,41.50
2019-04-23T19:39:29.509Z,42.20
2019-04-23T19:44:27.908Z,42.50
2019-04-23T19:47:13.891Z,42.70
2019-04-23T19:51:59.581Z,42.60
2019-04-23T19:57:02.080Z,42.60
2019-04-23T20:04:42.248Z,42.50
2019-04-23T20:12:13.348Z,54.90
2019-04-23T20:14:54.852Z,43.00
2019-04-23T20:17:38.998Z,43.80
2019-04-23T20:19:56.751Z,44.50
2019-04-23T20:22:36.964Z,44.20
2019-04-23T20:27:33.706Z,44.20
2019-04-23T20:30:33.868Z,44.40
2019-04-23T20:35:44.815Z,55.80
2019-04-23T20:43:23.775Z,46.40
2019-04-23T20:45:58.786Z,46.20
2019-04-23T20:48:31.055Z,45.70
2019-04-23T20:50:58.909Z,45.90
2019-04-23T20:53:34.416Z,45.80
2019-04-23T20:56:07.293Z,46.40
2019-04-23T20:58:58.521Z,46.80
2019-04-23T21:01:31.056Z,46.90
2019-04-23T21:03:59.978Z,47.90
2019-04-23T21:06:43.430Z,47.90
2019-04-23T21:09:27.917Z,49.00
2019-04-23T21:11:58.420Z,47.60
2019-04-23T21:14:27.185Z,48.10
2019-04-23T21:16:42.687Z,47.90
2019-04-23T21:19:26.218Z,48.10
2019-04-23T21:22:13.458Z,47.90
2019-04-23T21:24:43.049Z,49.00
2019-04-23T21:27:27.648Z,49.70
2019-04-23T21:30:09.097Z,50.10
2019-04-23T21:32:35.900Z,49.40
2019-04-23T21:35:16.769Z,49.00
2019-04-23T21:37:54.110Z,50.30
2019-04-23T21:45:54.562Z,50.40
2019-04-23T21:48:15.530Z,51.80
2019-04-23T21:53:15.035Z,52.70
2019-04-23T21:58:35.002Z,52.70
2019-04-23T22:01:06.539Z,53.00
2019-04-23T22:04:01.467Z,54.50
2019-04-23T22:06:13.797Z,54.10
2019-04-23T22:08:44.058Z,54.30
2019-04-23T22:11:36.106Z,54.50
2019-04-23T22:13:59.073Z,55.50
2019-04-23T22:19:04.259Z,68.00
2019-04-23T22:21:36.168Z,56.50
2019-04-23T22:24:03.104Z,57.20
2019-04-23T22:29:14.068Z,58.30
2019-04-23T22:31:41.826Z,59.80
2019-04-23T22:34:22.142Z,59.80
2019-04-23T22:36:43.568Z,58.30
2019-04-23T22:39:10.057Z,58.70
2019-04-23T22:41:50.446Z,60.30
2019-04-23T22:46:59.218Z,61.30
2019-04-23T22:49:40.663Z,61.90
2019-04-23T22:54:32.403Z,75.40
2019-04-23T22:57:04.450Z,64.50
2019-04-23T22:59:48.476Z,64.10
2019-04-23T23:05:29.370Z,66.40
2019-04-23T23:08:01.517Z,67.90
2019-04-23T23:10:27.737Z,68.80
2019-04-23T23:13:05.871Z,69.80
2019-04-23T23:15:36.937Z,70.80
2019-04-23T23:18:07.352Z,70.90
2019-04-23T23:20:36.185Z,71.60
2019-04-23T23:25:46.094Z,73.20
2019-04-23T23:28:13.384Z,74.70
2019-04-23T23:33:19.226Z,83.40
2019-04-23T23:35:53.055Z,89.90
2019-04-23T23:38:25.489Z,90.40
2019-04-23T23:41:05.662Z,93.10
2019-04-23T23:43:34.974Z,93.80
2019-04-23T23:51:10.143Z,93.90
